logo
Search for airport 
image banner adimage banner adimage banner ad
image banner ad

HKPN - Kapengani

Located in , Kenya

ICAO - , IATA -

Data provided by Airmate  

General information

Coordinates: S2°50'9" E39°38'3"
Elevation is 628 feet MSL.
 
View others Airports in Coast Province

Operational data

Special qualification required
Current time UTC:
Current local time:
Weather at : HKML - Malindi ( 67 km )
TAF: TAF HKML 180500Z 1806/1906 21010KT 9999 FEW020 SCT080 TEMPO 1807/1810 -RA SCT020 BKN080 BECMG 1900/1903 00000KT FEW018 SCT020
View NOTAMs / SUP AIP / TFR affecting this airport [VIEW]
Communications frequencies: [VIEW]

Runways:

RWY identifierQFULength (ft)Width (ft)SurfaceLDA (ft)
1500UNK
3300UNK

Airport contact information

Address: Kenya

Satellite view of HKPN